sensor_id;sensor_type;location;lat;lon;timestamp;temperature;humidity
20345;DHT22;10330;48.816;9.278;2023-05-14T00:00:15;12.90;99.90
20345;DHT22;10330;48.816;9.278;2023-05-14T00:02:41;12.80;99.90
20345;DHT22;10330;48.816;9.278;2023-05-14T00:05:08;12.80;99.90
20345;DHT22;10330;48.816;9.278;2023-05-14T00:07:35;12.80;99.90
20345;DHT22;10330;48.816;9.278;2023-05-14T00:10:01;12.80;99.90
20345;DHT22;10330;48.816;9.278;2023-05-14T00:12:27;12.80;99.90
20345;DHT22;10330;48.816;9.278;2023-05-14T00:14:55;12.80;99.90
20345;DHT22;10330;48.816;9.278;2023-05-14T00:17:21;12.80;99.90
20345;DHT22;10330;48.816;9.278;2023-05-14T00:19:47;12.80;99.90
20345;DHT22;10330;48.816;9.278;2023-05-14T00:22:14;12.80;99.90
20345;DHT22;10330;48.816;9.278;2023-05-14T00:24:42;12.80;99.90
20345;DHT22;10330;48.816;9.278;2023-05-14T00:27:08;12.80;99.90
20345;DHT22;10330;48.816;9.278;2023-05-14T00:29:35;12.80;99.90
20345;DHT22;10330;48.816;9.278;2023-05-14T00:32:02;12.70;99.90
20345;DHT22;10330;48.816;9.278;2023-05-14T00:34:28;12.70;99.90
20345;DHT22;10330;48.816;9.278;2023-05-14T00:36:54;12.70;99.90
20345;DHT22;10330;48.816;9.278;2023-05-14T00:39:21;12.60;99.90
20345;DHT22;10330;48.816;9.278;2023-05-14T00:41:47;12.60;99.90
20345;DHT22;10330;48.816;9.278;2023-05-14T00:44:13;12.50;99.90
20345;DHT22;10330;48.816;9.278;2023-05-14T00:46:39;12.40;99.90
20345;DHT22;10330;48.816;9.278;2023-05-14T00:49:06;12.50;99.90
20345;DHT22;10330;48.816;9.278;2023-05-14T00:51:32;12.40;99.90
20345;DHT22;10330;48.816;9.278;2023-05-14T00:53:59;12.40;99.90
20345;DHT22;10330;48.816;9.278;2023-05-14T00:56:26;12.30;99.90
20345;DHT22;10330;48.816;9.278;2023-05-14T00:58:52;12.30;99.90
20345;DHT22;10330;48.816;9.278;2023-05-14T01:01:19;12.20;99.90
20345;DHT22;10330;48.816;9.278;2023-05-14T01:03:45;12.30;99.90
20345;DHT22;10330;48.816;9.278;2023-05-14T01:11:27;12.10;99.90
20345;DHT22;10330;48.816;9.278;2023-05-14T01:14:10;12.00;99.90
20345;DHT22;10330;48.816;9.278;2023-05-14T01:16:39;11.90;99.90
20345;DHT22;10330;48.816;9.278;2023-05-14T01:19:12;12.00;99.90
20345;DHT22;10330;48.816;9.278;2023-05-14T01:21:43;11.90;99.90
20345;DHT22;10330;48.816;9.278;2023-05-14T01:24:09;11.80;99.90
20345;DHT22;10330;48.816;9.278;2023-05-14T01:26:36;11.80;99.90
20345;DHT22;10330;48.816;9.278;2023-05-14T01:29:15;11.80;99.90
20345;DHT22;10330;48.816;9.278;2023-05-14T01:31:46;11.90;99.90
20345;DHT22;10330;48.816;9.278;2023-05-14T01:34:20;11.80;99.90
20345;DHT22;10330;48.816;9.278;2023-05-14T01:36:48;11.70;99.90
20345;DHT22;10330;48.816;9.278;2023-05-14T01:39:16;11.70;99.90
20345;DHT22;10330;48.816;9.278;2023-05-14T01:41:46;11.80;99.90
20345;DHT22;10330;48.816;9.278;2023-05-14T01:44:13;11.70;99.90
20345;DHT22;10330;48.816;9.278;2023-05-14T01:46:40;11.70;99.90
20345;DHT22;10330;48.816;9.278;2023-05-14T01:49:06;11.80;99.90
20345;DHT22;10330;48.816;9.278;2023-05-14T01:51:33;11.70;99.90
20345;DHT22;10330;48.816;9.278;2023-05-14T01:53:59;11.70;99.90
20345;DHT22;10330;48.816;9.278;2023-05-14T01:56:25;11.70;99.90
20345;DHT22;10330;48.816;9.278;2023-05-14T01:58:52;11.60;99.90
20345;DHT22;10330;48.816;9.278;2023-05-14T02:01:23;11.50;99.90
20345;DHT22;10330;48.816;9.278;2023-05-14T02:03:51;11.50;99.90
20345;DHT22;10330;48.816;9.278;2023-05-14T02:06:17;11.50;99.90
20345;DHT22;10330;48.816;9.278;2023-05-14T02:08:43;11.40;99.90
20345;DHT22;10330;48.816;9.278;2023-05-14T02:11:10;11.40;99.90
20345;DHT22;10330;48.816;9.278;2023-05-14T02:13:36;11.40;99.90
20345;DHT22;10330;48.816;9.278;2023-05-14T02:16:02;11.40;99.90
20345;DHT22;10330;48.816;9.278;2023-05-14T02:18:29;11.40;99.90
20345;DHT22;10330;48.816;9.278;2023-05-14T02:20:56;11.30;99.90
20345;DHT22;10330;48.816;9.278;2023-05-14T02:23:22;11.40;99.90
20345;DHT22;10330;48.816;9.278;2023-05-14T02:25:49;11.30;99.90
20345;DHT22;10330;48.816;9.278;2023-05-14T02:28:15;11.30;99.90
20345;DHT22;10330;48.816;9.278;2023-05-14T02:30:42;11.40;99.90
20345;DHT22;10330;48.816;9.278;2023-05-14T02:33:08;11.40;99.90
20345;DHT22;10330;48.816;9.278;2023-05-14T02:35:34;11.30;99.90
20345;DHT22;10330;48.816;9.278;2023-05-14T02:38:01;11.30;99.90
20345;DHT22;10330;48.816;9.278;2023-05-14T02:40:27;11.30;99.90
20345;DHT22;10330;48.816;9.278;2023-05-14T02:42:53;11.30;99.90
20345;DHT22;10330;48.816;9.278;2023-05-14T02:45:20;11.30;99.90
20345;DHT22;10330;48.816;9.278;2023-05-14T02:47:46;11.30;99.90
20345;DHT22;10330;48.816;9.278;2023-05-14T02:50:12;11.30;99.90
20345;DHT22;10330;48.816;9.278;2023-05-14T02:52:39;11.30;99.90
20345;DHT22;10330;48.816;9.278;2023-05-14T02:55:05;11.30;99.90
20345;DHT22;10330;48.816;9.278;2023-05-14T02:57:31;11.30;99.90
20345;DHT22;10330;48.816;9.278;2023-05-14T02:59:58;11.30;99.90
20345;DHT22;10330;48.816;9.278;2023-05-14T03:02:24;11.30;99.90
20345;DHT22;10330;48.816;9.278;2023-05-14T03:04:50;11.40;99.90
20345;DHT22;10330;48.816;9.278;2023-05-14T03:07:17;11.40;99.90
20345;DHT22;10330;48.816;9.278;2023-05-14T03:09:43;11.30;99.90
20345;DHT22;10330;48.816;9.278;2023-05-14T03:12:10;11.30;99.90
20345;DHT22;10330;48.816;9.278;2023-05-14T03:14:37;11.40;99.90
20345;DHT22;10330;48.816;9.278;2023-05-14T03:17:04;11.30;99.90
20345;DHT22;10330;48.816;9.278;2023-05-14T03:19:30;11.30;99.90
20345;DHT22;10330;48.816;9.278;2023-05-14T03:21:56;11.40;99.90
20345;DHT22;10330;48.816;9.278;2023-05-14T03:24:22;11.30;99.90
20345;DHT22;10330;48.816;9.278;2023-05-14T03:26:49;11.30;99.90
20345;DHT22;10330;48.816;9.278;2023-05-14T03:29:15;11.30;99.90
20345;DHT22;10330;48.816;9.278;2023-05-14T03:31:43;11.30;99.90
20345;DHT22;10330;48.816;9.278;2023-05-14T03:34:10;11.30;99.90
20345;DHT22;10330;48.816;9.278;2023-05-14T03:36:36;11.30;99.90
20345;DHT22;10330;48.816;9.278;2023-05-14T03:39:04;11.20;99.90
20345;DHT22;10330;48.816;9.278;2023-05-14T03:41:34;11.20;99.90
20345;DHT22;10330;48.816;9.278;2023-05-14T03:44:01;11.20;99.90
20345;DHT22;10330;48.816;9.278;2023-05-14T03:46:27;11.30;99.90
20345;DHT22;10330;48.816;9.278;2023-05-14T03:48:55;11.20;99.90
20345;DHT22;10330;48.816;9.278;2023-05-14T03:51:22;11.30;99.90
20345;DHT22;10330;48.816;9.278;2023-05-14T03:53:48;11.30;99.90
20345;DHT22;10330;48.816;9.278;2023-05-14T03:56:14;11.40;99.90
20345;DHT22;10330;48.816;9.278;2023-05-14T03:58:41;11.30;99.90
20345;DHT22;10330;48.816;9.278;2023-05-14T04:01:08;11.30;99.90
20345;DHT22;10330;48.816;9.278;2023-05-14T04:03:34;11.30;99.90
20345;DHT22;10330;48.816;9.278;2023-05-14T04:06:00;11.40;99.90
20345;DHT22;10330;48.816;9.278;2023-05-14T04:08:26;11.30;99.90
20345;DHT22;10330;48.816;9.278;2023-05-14T04:10:55;11.30;99.90
20345;DHT22;10330;48.816;9.278;2023-05-14T04:13:22;11.40;99.90
20345;DHT22;10330;48.816;9.278;2023-05-14T04:15:48;11.40;99.90
20345;DHT22;10330;48.816;9.278;2023-05-14T04:18:15;11.30;99.90
20345;DHT22;10330;48.816;9.278;2023-05-14T04:20:42;11.30;99.90
20345;DHT22;10330;48.816;9.278;2023-05-14T04:23:11;11.30;99.90
20345;DHT22;10330;48.816;9.278;2023-05-14T04:25:37;11.30;99.90
20345;DHT22;10330;48.816;9.278;2023-05-14T04:28:13;11.30;99.90
20345;DHT22;10330;48.816;9.278;2023-05-14T04:30:40;11.30;99.90
20345;DHT22;10330;48.816;9.278;2023-05-14T04:33:06;11.30;99.90
20345;DHT22;10330;48.816;9.278;2023-05-14T04:35:32;11.30;99.90
20345;DHT22;10330;48.816;9.278;2023-05-14T04:37:58;11.30;99.90
20345;DHT22;10330;48.816;9.278;2023-05-14T04:40:24;11.40;99.90
20345;DHT22;10330;48.816;9.278;2023-05-14T04:42:50;11.40;99.90
20345;DHT22;10330;48.816;9.278;2023-05-14T04:45:17;11.40;99.90
20345;DHT22;10330;48.816;9.278;2023-05-14T04:47:43;11.40;99.90
20345;DHT22;10330;48.816;9.278;2023-05-14T04:50:09;11.40;99.90
20345;DHT22;10330;48.816;9.278;2023-05-14T04:52:37;11.40;99.90
20345;DHT22;10330;48.816;9.278;2023-05-14T04:55:05;11.40;99.90
20345;DHT22;10330;48.816;9.278;2023-05-14T04:57:32;11.50;99.90
20345;DHT22;10330;48.816;9.278;2023-05-14T04:59:58;11.50;99.90
20345;DHT22;10330;48.816;9.278;2023-05-14T05:02:27;11.50;99.90
20345;DHT22;10330;48.816;9.278;2023-05-14T05:04:53;11.50;99.90
20345;DHT22;10330;48.816;9.278;2023-05-14T05:07:19;11.50;99.90
20345;DHT22;10330;48.816;9.278;2023-05-14T05:09:45;11.60;99.90
20345;DHT22;10330;48.816;9.278;2023-05-14T05:12:12;11.60;99.90
20345;DHT22;10330;48.816;9.278;2023-05-14T05:14:38;11.60;99.90
20345;DHT22;10330;48.816;9.278;2023-05-14T05:17:04;11.70;99.90
20345;DHT22;10330;48.816;9.278;2023-05-14T05:19:30;11.70;99.90
20345;DHT22;10330;48.816;9.278;2023-05-14T05:21:56;11.70;99.90
20345;DHT22;10330;48.816;9.278;2023-05-14T05:24:23;11.80;99.90
20345;DHT22;10330;48.816;9.278;2023-05-14T05:26:49;11.80;99.90
20345;DHT22;10330;48.816;9.278;2023-05-14T05:29:16;11.90;99.90
20345;DHT22;10330;48.816;9.278;2023-05-14T05:31:43;11.90;99.90
20345;DHT22;10330;48.816;9.278;2023-05-14T05:34:09;11.80;99.90
20345;DHT22;10330;48.816;9.278;2023-05-14T05:36:35;11.80;99.90
20345;DHT22;10330;48.816;9.278;2023-05-14T05:39:01;11.80;99.90
20345;DHT22;10330;48.816;9.278;2023-05-14T05:41:28;11.80;99.90
20345;DHT22;10330;48.816;9.278;2023-05-14T05:43:55;11.80;99.90
20345;DHT22;10330;48.816;9.278;2023-05-14T05:46:21;11.80;99.90
20345;DHT22;10330;48.816;9.278;2023-05-14T05:48:47;11.80;99.90
20345;DHT22;10330;48.816;9.278;2023-05-14T05:51:14;11.90;99.90
20345;DHT22;10330;48.816;9.278;2023-05-14T05:53:40;11.90;99.90
20345;DHT22;10330;48.816;9.278;2023-05-14T05:56:06;11.90;99.90
20345;DHT22;10330;48.816;9.278;2023-05-14T05:58:32;12.00;99.90
20345;DHT22;10330;48.816;9.278;2023-05-14T06:00:59;12.20;99.90
20345;DHT22;10330;48.816;9.278;2023-05-14T06:03:25;12.20;99.90
20345;DHT22;10330;48.816;9.278;2023-05-14T06:05:52;12.20;99.90
20345;DHT22;10330;48.816;9.278;2023-05-14T06:08:18;12.20;99.90
20345;DHT22;10330;48.816;9.278;2023-05-14T06:10:44;12.30;99.90
20345;DHT22;10330;48.816;9.278;2023-05-14T06:13:11;12.30;99.90
20345;DHT22;10330;48.816;9.278;2023-05-14T06:15:37;12.30;99.90
20345;DHT22;10330;48.816;9.278;2023-05-14T06:18:04;12.20;99.90
20345;DHT22;10330;48.816;9.278;2023-05-14T06:24:38;12.40;99.90
20345;DHT22;10330;48.816;9.278;2023-05-14T06:27:05;12.50;99.90
20345;DHT22;10330;48.816;9.278;2023-05-14T06:29:31;12.60;99.90
20345;DHT22;10330;48.816;9.278;2023-05-14T06:32:00;12.70;99.90
20345;DHT22;10330;48.816;9.278;2023-05-14T06:34:27;12.70;99.90
20345;DHT22;10330;48.816;9.278;2023-05-14T06:36:53;12.70;99.90
20345;DHT22;10330;48.816;9.278;2023-05-14T06:39:20;12.80;99.90
20345;DHT22;10330;48.816;9.278;2023-05-14T06:45:36;12.80;99.90
20345;DHT22;10330;48.816;9.278;2023-05-14T06:48:03;12.80;99.90
20345;DHT22;10330;48.816;9.278;2023-05-14T06:50:33;12.90;99.90
20345;DHT22;10330;48.816;9.278;2023-05-14T06:53:02;12.90;99.90
20345;DHT22;10330;48.816;9.278;2023-05-14T06:55:28;12.90;99.90
20345;DHT22;10330;48.816;9.278;2023-05-14T06:57:55;13.00;99.90
20345;DHT22;10330;48.816;9.278;2023-05-14T07:03:49;13.20;99.90
20345;DHT22;10330;48.816;9.278;2023-05-14T07:06:15;13.30;99.90
20345;DHT22;10330;48.816;9.278;2023-05-14T07:08:43;13.20;99.90
20345;DHT22;10330;48.816;9.278;2023-05-14T07:11:12;13.20;99.90
20345;DHT22;10330;48.816;9.278;2023-05-14T07:13:39;13.30;99.90
20345;DHT22;10330;48.816;9.278;2023-05-14T07:16:06;13.40;99.90
20345;DHT22;10330;48.816;9.278;2023-05-14T07:18:34;13.50;99.90
20345;DHT22;10330;48.816;9.278;2023-05-14T07:24:03;13.80;99.90
20345;DHT22;10330;48.816;9.278;2023-05-14T07:26:35;13.90;99.90
20345;DHT22;10330;48.816;9.278;2023-05-14T07:29:01;14.00;99.90
20345;DHT22;10330;48.816;9.278;2023-05-14T07:31:28;14.10;99.90
20345;DHT22;10330;48.816;9.278;2023-05-14T07:33:56;14.30;99.90
20345;DHT22;10330;48.816;9.278;2023-05-14T07:36:23;14.30;99.90
20345;DHT22;10330;48.816;9.278;2023-05-14T07:38:49;14.30;99.90
20345;DHT22;10330;48.816;9.278;2023-05-14T07:41:16;14.40;99.90
20345;DHT22;10330;48.816;9.278;2023-05-14T07:43:42;14.40;99.90
20345;DHT22;10330;48.816;9.278;2023-05-14T07:46:11;14.40;99.90
20345;DHT22;10330;48.816;9.278;2023-05-14T07:48:38;14.50;99.90
20345;DHT22;10330;48.816;9.278;2023-05-14T07:51:04;14.60;99.90
20345;DHT22;10330;48.816;9.278;2023-05-14T07:53:33;14.80;99.90
20345;DHT22;10330;48.816;9.278;2023-05-14T07:55:59;14.90;99.90
20345;DHT22;10330;48.816;9.278;2023-05-14T07:58:29;15.10;99.90
20345;DHT22;10330;48.816;9.278;2023-05-14T08:00:56;15.10;99.90
20345;DHT22;10330;48.816;9.278;2023-05-14T08:03:25;15.10;99.90
20345;DHT22;10330;48.816;9.278;2023-05-14T08:05:51;15.10;99.90
20345;DHT22;10330;48.816;9.278;2023-05-14T08:08:23;15.10;99.90
20345;DHT22;10330;48.816;9.278;2023-05-14T08:11:08;15.10;99.90
20345;DHT22;10330;48.816;9.278;2023-05-14T08:13:50;15.20;99.90
20345;DHT22;10330;48.816;9.278;2023-05-14T08:16:19;15.40;99.90
20345;DHT22;10330;48.816;9.278;2023-05-14T08:18:46;15.60;99.90
20345;DHT22;10330;48.816;9.278;2023-05-14T08:21:12;15.70;99.90
20345;DHT22;10330;48.816;9.278;2023-05-14T08:23:41;15.80;99.90
20345;DHT22;10330;48.816;9.278;2023-05-14T08:26:11;16.00;99.90
20345;DHT22;10330;48.816;9.278;2023-05-14T08:28:48;15.80;99.90
20345;DHT22;10330;48.816;9.278;2023-05-14T08:31:16;15.70;99.90
20345;DHT22;10330;48.816;9.278;2023-05-14T08:33:46;15.70;99.90
20345;DHT22;10330;48.816;9.278;2023-05-14T08:36:42;15.80;99.90
20345;DHT22;10330;48.816;9.278;2023-05-14T08:39:11;15.80;99.90
20345;DHT22;10330;48.816;9.278;2023-05-14T08:41:54;15.70;99.90
20345;DHT22;10330;48.816;9.278;2023-05-14T08:44:35;16.00;99.90
20345;DHT22;10330;48.816;9.278;2023-05-14T08:47:04;16.00;99.90
20345;DHT22;10330;48.816;9.278;2023-05-14T08:49:45;16.00;99.90
20345;DHT22;10330;48.816;9.278;2023-05-14T08:52:12;16.00;99.90
20345;DHT22;10330;48.816;9.278;2023-05-14T08:54:41;16.10;99.90
20345;DHT22;10330;48.816;9.278;2023-05-14T08:57:09;16.20;99.90
20345;DHT22;10330;48.816;9.278;2023-05-14T08:59:35;16.30;99.90
20345;DHT22;10330;48.816;9.278;2023-05-14T09:02:04;16.50;99.90
20345;DHT22;10330;48.816;9.278;2023-05-14T09:04:31;16.60;99.90
20345;DHT22;10330;48.816;9.278;2023-05-14T09:07:02;16.70;99.90
20345;DHT22;10330;48.816;9.278;2023-05-14T09:09:32;16.70;99.90
20345;DHT22;10330;48.816;9.278;2023-05-14T09:12:00;16.80;99.90
20345;DHT22;10330;48.816;9.278;2023-05-14T09:14:26;17.00;99.90
20345;DHT22;10330;48.816;9.278;2023-05-14T09:16:53;17.10;99.90
20345;DHT22;10330;48.816;9.278;2023-05-14T09:19:20;17.10;99.90
20345;DHT22;10330;48.816;9.278;2023-05-14T09:21:48;17.00;99.90
20345;DHT22;10330;48.816;9.278;2023-05-14T09:24:22;17.00;99.90
20345;DHT22;10330;48.816;9.278;2023-05-14T09:27:01;17.00;99.90
20345;DHT22;10330;48.816;9.278;2023-05-14T09:29:30;17.10;99.90
20345;DHT22;10330;48.816;9.278;2023-05-14T09:32:00;17.30;99.90
20345;DHT22;10330;48.816;9.278;2023-05-14T09:34:38;17.50;99.90
20345;DHT22;10330;48.816;9.278;2023-05-14T09:37:25;17.70;99.90
20345;DHT22;10330;48.816;9.278;2023-05-14T09:39:53;17.80;99.90
20345;DHT22;10330;48.816;9.278;2023-05-14T09:42:20;17.90;99.90
20345;DHT22;10330;48.816;9.278;2023-05-14T09:44:47;17.90;99.90
20345;DHT22;10330;48.816;9.278;2023-05-14T09:47:18;18.00;99.90
20345;DHT22;10330;48.816;9.278;2023-05-14T09:49:47;18.00;99.90
20345;DHT22;10330;48.816;9.278;2023-05-14T09:52:23;17.90;99.90
20345;DHT22;10330;48.816;9.278;2023-05-14T09:54:51;17.90;99.90
20345;DHT22;10330;48.816;9.278;2023-05-14T09:57:18;17.90;99.90
20345;DHT22;10330;48.816;9.278;2023-05-14T09:59:45;17.90;99.90
20345;DHT22;10330;48.816;9.278;2023-05-14T10:02:26;18.00;99.90
20345;DHT22;10330;48.816;9.278;2023-05-14T10:04:59;18.00;99.90
20345;DHT22;10330;48.816;9.278;2023-05-14T10:07:40;18.10;99.90
20345;DHT22;10330;48.816;9.278;2023-05-14T10:10:15;18.20;99.90
20345;DHT22;10330;48.816;9.278;2023-05-14T10:12:44;18.40;99.90
20345;DHT22;10330;48.816;9.278;2023-05-14T10:15:20;18.40;99.90
20345;DHT22;10330;48.816;9.278;2023-05-14T10:17:55;18.50;99.90
20345;DHT22;10330;48.816;9.278;2023-05-14T10:20:23;18.30;99.90
20345;DHT22;10330;48.816;9.278;2023-05-14T10:22:52;18.30;99.90
20345;DHT22;10330;48.816;9.278;2023-05-14T10:25:19;18.30;99.90
20345;DHT22;10330;48.816;9.278;2023-05-14T10:27:46;18.40;99.90
20345;DHT22;10330;48.816;9.278;2023-05-14T10:30:16;18.50;99.90
20345;DHT22;10330;48.816;9.278;2023-05-14T10:32:48;18.50;99.90
20345;DHT22;10330;48.816;9.278;2023-05-14T10:35:24;18.70;99.90
20345;DHT22;10330;48.816;9.278;2023-05-14T10:37:52;18.90;99.90
20345;DHT22;10330;48.816;9.278;2023-05-14T10:40:19;19.00;99.90
20345;DHT22;10330;48.816;9.278;2023-05-14T10:42:48;18.90;99.90
20345;DHT22;10330;48.816;9.278;2023-05-14T10:45:15;19.00;99.90
20345;DHT22;10330;48.816;9.278;2023-05-14T10:47:43;19.00;99.90
20345;DHT22;10330;48.816;9.278;2023-05-14T10:50:19;18.90;99.90
20345;DHT22;10330;48.816;9.278;2023-05-14T10:52:46;18.90;99.90
20345;DHT22;10330;48.816;9.278;2023-05-14T10:55:13;18.80;99.90
20345;DHT22;10330;48.816;9.278;2023-05-14T10:57:43;18.80;99.90
20345;DHT22;10330;48.816;9.278;2023-05-14T11:27:03;19.30;99.90
20345;DHT22;10330;48.816;9.278;2023-05-14T11:29:29;19.30;99.90
20345;DHT22;10330;48.816;9.278;2023-05-14T11:31:56;19.40;99.90
20345;DHT22;10330;48.816;9.278;2023-05-14T11:34:22;19.40;99.90
20345;DHT22;10330;48.816;9.278;2023-05-14T11:37:07;19.60;99.90
20345;DHT22;10330;48.816;9.278;2023-05-14T11:39:59;19.70;99.90
20345;DHT22;10330;48.816;9.278;2023-05-14T11:42:48;19.80;99.90
20345;DHT22;10330;48.816;9.278;2023-05-14T11:45:31;19.90;99.90
20345;DHT22;10330;48.816;9.278;2023-05-14T11:47:58;20.00;99.90
20345;DHT22;10330;48.816;9.278;2023-05-14T11:50:24;20.20;99.90
20345;DHT22;10330;48.816;9.278;2023-05-14T11:52:55;20.40;99.90
20345;DHT22;10330;48.816;9.278;2023-05-14T11:55:22;20.80;99.90
20345;DHT22;10330;48.816;9.278;2023-05-14T11:57:54;21.30;99.90
20345;DHT22;10330;48.816;9.278;2023-05-14T12:01:00;21.90;99.90
20345;DHT22;10330;48.816;9.278;2023-05-14T12:04:03;22.00;99.90
20345;DHT22;10330;48.816;9.278;2023-05-14T12:06:32;21.90;99.90
20345;DHT22;10330;48.816;9.278;2023-05-14T12:08:58;21.60;99.90
20345;DHT22;10330;48.816;9.278;2023-05-14T12:11:30;21.40;99.90
20345;DHT22;10330;48.816;9.278;2023-05-14T12:13:58;21.10;99.90
20345;DHT22;10330;48.816;9.278;2023-05-14T12:16:29;21.00;99.90
20345;DHT22;10330;48.816;9.278;2023-05-14T12:19:00;20.90;99.90
20345;DHT22;10330;48.816;9.278;2023-05-14T12:21:29;20.90;99.90
20345;DHT22;10330;48.816;9.278;2023-05-14T12:23:59;20.80;99.90
20345;DHT22;10330;48.816;9.278;2023-05-14T12:26:25;20.80;99.90
20345;DHT22;10330;48.816;9.278;2023-05-14T12:29:02;20.60;99.90
20345;DHT22;10330;48.816;9.278;2023-05-14T12:31:30;20.50;99.90
20345;DHT22;10330;48.816;9.278;2023-05-14T12:37:44;20.90;99.90
20345;DHT22;10330;48.816;9.278;2023-05-14T12:40:13;21.50;99.90
20345;DHT22;10330;48.816;9.278;2023-05-14T12:47:46;21.80;99.90
20345;DHT22;10330;48.816;9.278;2023-05-14T12:50:12;21.70;99.90
20345;DHT22;10330;48.816;9.278;2023-05-14T12:52:50;21.50;99.90
20345;DHT22;10330;48.816;9.278;2023-05-14T12:55:25;21.40;99.90
20345;DHT22;10330;48.816;9.278;2023-05-14T12:58:06;21.20;99.90
20345;DHT22;10330;48.816;9.278;2023-05-14T13:00:51;21.10;99.90
20345;DHT22;10330;48.816;9.278;2023-05-14T13:03:28;21.10;99.90
20345;DHT22;10330;48.816;9.278;2023-05-14T13:06:01;21.30;99.90
20345;DHT22;10330;48.816;9.278;2023-05-14T13:08:30;22.30;99.90
20345;DHT22;10330;48.816;9.278;2023-05-14T13:11:13;23.40;99.90
20345;DHT22;10330;48.816;9.278;2023-05-14T13:18:16;24.60;99.90
20345;DHT22;10330;48.816;9.278;2023-05-14T13:20:57;23.90;99.90
20345;DHT22;10330;48.816;9.278;2023-05-14T13:23:31;23.50;99.90
20345;DHT22;10330;48.816;9.278;2023-05-14T13:26:03;23.00;99.90
20345;DHT22;10330;48.816;9.278;2023-05-14T13:31:45;22.30;99.90
20345;DHT22;10330;48.816;9.278;2023-05-14T13:34:12;21.90;99.90
20345;DHT22;10330;48.816;9.278;2023-05-14T13:36:39;21.80;99.90
20345;DHT22;10330;48.816;9.278;2023-05-14T13:39:09;21.60;99.90
20345;DHT22;10330;48.816;9.278;2023-05-14T13:41:39;21.40;99.90
20345;DHT22;10330;48.816;9.278;2023-05-14T13:44:10;21.40;99.90
20345;DHT22;10330;48.816;9.278;2023-05-14T13:46:37;22.10;99.90
20345;DHT22;10330;48.816;9.278;2023-05-14T13:49:10;23.00;99.90
20345;DHT22;10330;48.816;9.278;2023-05-14T13:51:37;23.90;99.90
20345;DHT22;10330;48.816;9.278;2023-05-14T13:54:03;24.60;99.90
20345;DHT22;10330;48.816;9.278;2023-05-14T13:56:29;25.20;99.90
20345;DHT22;10330;48.816;9.278;2023-05-14T13:58:55;25.80;99.90
20345;DHT22;10330;48.816;9.278;2023-05-14T14:01:22;26.10;99.90
20345;DHT22;10330;48.816;9.278;2023-05-14T14:03:48;26.50;99.90
20345;DHT22;10330;48.816;9.278;2023-05-14T14:06:14;26.70;99.90
20345;DHT22;10330;48.816;9.278;2023-05-14T14:08:45;27.10;99.90
20345;DHT22;10330;48.816;9.278;2023-05-14T14:11:12;27.50;99.90
20345;DHT22;10330;48.816;9.278;2023-05-14T14:13:38;27.80;99.90
20345;DHT22;10330;48.816;9.278;2023-05-14T14:16:05;28.00;99.90
20345;DHT22;10330;48.816;9.278;2023-05-14T14:18:32;28.30;99.90
20345;DHT22;10330;48.816;9.278;2023-05-14T14:20:59;28.50;99.90
20345;DHT22;10330;48.816;9.278;2023-05-14T14:23:25;28.70;99.90
20345;DHT22;10330;48.816;9.278;2023-05-14T14:25:51;28.20;99.90
20345;DHT22;10330;48.816;9.278;2023-05-14T14:28:21;27.50;99.90
20345;DHT22;10330;48.816;9.278;2023-05-14T14:30:47;26.70;99.90
20345;DHT22;10330;48.816;9.278;2023-05-14T14:33:13;25.90;99.90
20345;DHT22;10330;48.816;9.278;2023-05-14T14:35:39;25.10;99.90
20345;DHT22;10330;48.816;9.278;2023-05-14T14:38:06;24.30;99.90
20345;DHT22;10330;48.816;9.278;2023-05-14T14:40:33;23.70;99.90
20345;DHT22;10330;48.816;9.278;2023-05-14T14:42:59;23.30;99.90
20345;DHT22;10330;48.816;9.278;2023-05-14T14:45:27;22.90;99.90
20345;DHT22;10330;48.816;9.278;2023-05-14T14:48:32;22.50;99.90
20345;DHT22;10330;48.816;9.278;2023-05-14T14:51:03;22.10;99.90
20345;DHT22;10330;48.816;9.278;2023-05-14T14:53:30;21.80;99.90
20345;DHT22;10330;48.816;9.278;2023-05-14T14:55:57;21.50;99.90
20345;DHT22;10330;48.816;9.278;2023-05-14T14:58:23;21.30;99.90
20345;DHT22;10330;48.816;9.278;2023-05-14T15:00:52;21.10;99.90
20345;DHT22;10330;48.816;9.278;2023-05-14T15:03:19;21.00;99.90
20345;DHT22;10330;48.816;9.278;2023-05-14T15:05:46;20.90;99.90
20345;DHT22;10330;48.816;9.278;2023-05-14T15:08:13;20.80;99.90
20345;DHT22;10330;48.816;9.278;2023-05-14T15:10:40;20.50;99.90
20345;DHT22;10330;48.816;9.278;2023-05-14T15:13:07;20.30;99.90
20345;DHT22;10330;48.816;9.278;2023-05-14T15:15:34;20.00;99.90
20345;DHT22;10330;48.816;9.278;2023-05-14T15:18:04;19.80;99.90
20345;DHT22;10330;48.816;9.278;2023-05-14T15:20:30;19.70;99.90
20345;DHT22;10330;48.816;9.278;2023-05-14T15:22:57;19.50;99.90
20345;DHT22;10330;48.816;9.278;2023-05-14T15:25:26;19.40;99.90
20345;DHT22;10330;48.816;9.278;2023-05-14T15:28:05;19.30;99.90
20345;DHT22;10330;48.816;9.278;2023-05-14T15:30:32;19.30;99.90
20345;DHT22;10330;48.816;9.278;2023-05-14T15:33:14;19.20;99.90
20345;DHT22;10330;48.816;9.278;2023-05-14T15:35:57;19.10;99.90
20345;DHT22;10330;48.816;9.278;2023-05-14T15:38:24;19.10;99.90
20345;DHT22;10330;48.816;9.278;2023-05-14T15:40:50;19.00;99.90
20345;DHT22;10330;48.816;9.278;2023-05-14T15:43:17;19.10;99.90
20345;DHT22;10330;48.816;9.278;2023-05-14T15:45:44;19.10;99.90
20345;DHT22;10330;48.816;9.278;2023-05-14T15:48:14;19.20;99.90
20345;DHT22;10330;48.816;9.278;2023-05-14T15:50:40;19.30;99.90
20345;DHT22;10330;48.816;9.278;2023-05-14T15:53:07;19.50;99.90
20345;DHT22;10330;48.816;9.278;2023-05-14T15:55:34;19.70;99.90
20345;DHT22;10330;48.816;9.278;2023-05-14T15:58:30;19.90;99.90
20345;DHT22;10330;48.816;9.278;2023-05-14T16:00:57;20.50;99.90
20345;DHT22;10330;48.816;9.278;2023-05-14T16:03:23;21.10;99.90
20345;DHT22;10330;48.816;9.278;2023-05-14T16:05:50;22.40;99.90
20345;DHT22;10330;48.816;9.278;2023-05-14T16:08:20;23.80;99.90
20345;DHT22;10330;48.816;9.278;2023-05-14T16:10:46;24.90;99.90
20345;DHT22;10330;48.816;9.278;2023-05-14T16:17:00;24.50;99.90
20345;DHT22;10330;48.816;9.278;2023-05-14T16:30:54;27.10;99.90
20345;DHT22;10330;48.816;9.278;2023-05-14T16:33:33;26.60;99.90
20345;DHT22;10330;48.816;9.278;2023-05-14T16:36:06;25.50;99.90
20345;DHT22;10330;48.816;9.278;2023-05-14T16:38:32;24.50;99.90
20345;DHT22;10330;48.816;9.278;2023-05-14T16:41:02;23.70;99.90
20345;DHT22;10330;48.816;9.278;2023-05-14T16:43:29;22.90;99.90
20345;DHT22;10330;48.816;9.278;2023-05-14T16:45:55;22.30;99.90
20345;DHT22;10330;48.816;9.278;2023-05-14T16:48:21;21.80;99.90
20345;DHT22;10330;48.816;9.278;2023-05-14T16:50:49;21.40;99.90
20345;DHT22;10330;48.816;9.278;2023-05-14T16:53:15;21.40;99.90
20345;DHT22;10330;48.816;9.278;2023-05-14T16:55:44;22.10;99.90
20345;DHT22;10330;48.816;9.278;2023-05-14T16:58:11;23.00;99.90